createdAt,value
2019-05-01T00:01:01.323Z,99.90
2019-05-01T00:03:37.387Z,99.90
2019-05-01T00:06:07.423Z,99.90
2019-05-01T00:08:35.834Z,99.90
2019-05-01T00:11:04.297Z,99.90
2019-05-01T00:13:33.122Z,99.90
2019-05-01T00:16:01.606Z,99.90
2019-05-01T00:18:30.008Z,99.90
2019-05-01T00:20:58.845Z,99.90
2019-05-01T00:23:27.257Z,99.90
2019-05-01T00:25:55.703Z,99.90
2019-05-01T00:28:24.230Z,99.90
2019-05-01T00:30:52.729Z,99.90
2019-05-01T00:33:21.190Z,99.90
2019-05-01T00:35:49.587Z,99.90
2019-05-01T00:38:18.201Z,99.90
2019-05-01T00:40:46.622Z,99.90
2019-05-01T00:43:15.014Z,99.90
2019-05-01T00:45:43.891Z,99.90
2019-05-01T00:48:12.278Z,99.90
2019-05-01T00:50:40.686Z,99.90
2019-05-01T00:53:09.098Z,99.90
2019-05-01T00:55:39.132Z,99.90
2019-05-01T00:58:15.657Z,99.90
2019-05-01T01:01:02.118Z,99.90
2019-05-01T01:03:30.627Z,99.90
2019-05-01T01:05:59.278Z,99.90
2019-05-01T01:08:27.681Z,99.90
2019-05-01T01:10:56.082Z,99.90
2019-05-01T01:13:24.550Z,99.90
2019-05-01T01:15:52.947Z,99.90
2019-05-01T01:18:21.354Z,99.90
2019-05-01T01:20:50.594Z,99.90
2019-05-01T01:23:19.234Z,99.90
2019-05-01T01:25:47.702Z,99.90
2019-05-01T01:28:16.934Z,99.90
2019-05-01T01:30:55.581Z,99.90
2019-05-01T01:33:15.866Z,99.90
2019-05-01T01:35:44.271Z,99.90
2019-05-01T01:38:13.102Z,99.90
2019-05-01T01:40:41.834Z,99.90
2019-05-01T01:43:18.318Z,99.90
2019-05-01T01:45:51.217Z,99.90
2019-05-01T01:48:19.807Z,99.90
2019-05-01T01:50:48.642Z,99.90
2019-05-01T01:53:20.194Z,99.90
2019-05-01T01:55:49.302Z,99.90
2019-05-01T01:58:39.315Z,99.90
2019-05-01T02:01:25.782Z,99.90
2019-05-01T02:03:56.128Z,99.90
2019-05-01T02:06:24.518Z,99.90
2019-05-01T02:08:56.622Z,99.90
2019-05-01T02:11:23.208Z,99.90
2019-05-01T02:13:56.259Z,99.90
2019-05-01T02:16:25.411Z,99.90
2019-05-01T02:18:53.873Z,99.90
2019-05-01T02:21:22.263Z,99.90
2019-05-01T02:23:50.674Z,99.90
2019-05-01T02:26:21.251Z,99.90
2019-05-01T02:28:54.870Z,99.90
2019-05-01T02:31:32.455Z,99.90
2019-05-01T02:34:03.307Z,99.90
2019-05-01T02:36:32.924Z,99.90
2019-05-01T02:39:01.619Z,99.90
2019-05-01T02:41:35.385Z,99.90
2019-05-01T02:44:09.807Z,99.90
2019-05-01T02:46:39.751Z,99.90
2019-05-01T02:49:17.298Z,99.90
2019-05-01T02:51:46.430Z,99.90
2019-05-01T02:54:18.118Z,99.90
2019-05-01T02:56:50.511Z,99.90
2019-05-01T02:59:19.844Z,99.90
2019-05-01T03:01:49.215Z,99.90
2019-05-01T03:04:17.963Z,99.90
2019-05-01T03:06:47.516Z,99.90
2019-05-01T03:09:17.759Z,99.90
2019-05-01T03:11:49.791Z,99.90
2019-05-01T03:14:20.616Z,99.90
2019-05-01T03:16:51.683Z,99.90
2019-05-01T03:19:23.623Z,99.90
2019-05-01T03:22:05.523Z,99.90
2019-05-01T03:24:34.332Z,99.90
2019-05-01T03:27:03.052Z,99.90
2019-05-01T03:29:31.830Z,99.90
2019-05-01T03:32:17.340Z,99.90
2019-05-01T03:34:31.742Z,99.90
2019-05-01T03:37:00.464Z,99.90
2019-05-01T03:39:29.732Z,99.90
2019-05-01T03:41:58.699Z,99.90
2019-05-01T03:44:27.236Z,99.90
2019-05-01T03:46:55.883Z,99.90
2019-05-01T03:49:24.453Z,99.90
2019-05-01T03:51:53.403Z,99.90
2019-05-01T03:54:22.027Z,99.90
2019-05-01T03:56:50.739Z,99.90
2019-05-01T03:59:20.002Z,99.90
2019-05-01T04:02:02.376Z,99.90
2019-05-01T04:04:32.606Z,99.90
2019-05-01T04:07:01.176Z,99.90
2019-05-01T04:09:29.639Z,99.90
2019-05-01T04:11:58.123Z,99.90
2019-05-01T04:14:26.867Z,99.90
2019-05-01T04:16:57.048Z,99.90
2019-05-01T04:19:25.678Z,99.90
2019-05-01T04:21:56.230Z,99.90
2019-05-01T04:24:24.927Z,99.90
2019-05-01T04:26:53.701Z,99.90
2019-05-01T04:29:29.478Z,99.90
2019-05-01T04:32:02.917Z,99.90
2019-05-01T04:34:41.948Z,99.90
2019-05-01T04:37:14.504Z,99.90
2019-05-01T04:39:42.916Z,99.90
2019-05-01T04:42:11.475Z,99.90
2019-05-01T04:44:41.010Z,99.90
2019-05-01T04:47:09.757Z,99.90
2019-05-01T04:49:38.391Z,99.90
2019-05-01T04:52:06.873Z,99.90
2019-05-01T04:54:35.358Z,99.90
2019-05-01T04:57:04.290Z,99.90
2019-05-01T04:59:34.078Z,99.90
2019-05-01T05:02:04.742Z,99.90
2019-05-01T05:04:33.878Z,99.90
2019-05-01T05:07:02.366Z,99.90
2019-05-01T05:09:39.551Z,99.90
2019-05-01T05:12:13.051Z,99.90
2019-05-01T05:14:59.103Z,99.90
2019-05-01T05:17:27.495Z,99.90
2019-05-01T05:19:56.589Z,99.90
2019-05-01T05:22:25.519Z,99.90
2019-05-01T05:24:54.371Z,99.90
2019-05-01T05:27:24.722Z,99.90
2019-05-01T05:29:56.185Z,99.90
2019-05-01T05:32:26.402Z,99.90
2019-05-01T05:34:57.749Z,99.90
2019-05-01T05:37:32.810Z,99.90
2019-05-01T05:40:02.060Z,99.90
2019-05-01T05:42:30.789Z,99.90
2019-05-01T05:44:59.715Z,99.90
2019-05-01T05:47:28.127Z,99.90
2019-05-01T05:49:56.957Z,99.90
2019-05-01T05:52:29.049Z,99.90
2019-05-01T05:55:10.402Z,99.90
2019-05-01T05:57:42.159Z,99.90
2019-05-01T06:00:13.659Z,99.90
2019-05-01T06:02:46.153Z,99.90
2019-05-01T06:05:28.871Z,99.90
2019-05-01T06:08:16.027Z,99.90
2019-05-01T06:10:53.581Z,99.90
2019-05-01T06:13:40.119Z,99.90
2019-05-01T06:16:18.692Z,99.90
2019-05-01T06:19:04.897Z,99.90
2019-05-01T06:21:37.659Z,99.90
2019-05-01T06:24:08.234Z,99.90
2019-05-01T06:26:39.139Z,99.90
2019-05-01T06:29:07.067Z,99.90
2019-05-01T06:31:36.383Z,99.90
2019-05-01T06:34:04.920Z,99.90
2019-05-01T06:36:33.862Z,99.90
2019-05-01T06:39:06.886Z,99.90
2019-05-01T06:41:42.398Z,99.90
2019-05-01T06:44:08.994Z,99.90
2019-05-01T06:46:45.410Z,99.90
2019-05-01T06:49:15.870Z,99.90
2019-05-01T06:51:53.374Z,99.90
2019-05-01T06:54:19.447Z,99.90
2019-05-01T06:56:48.618Z,99.90
2019-05-01T06:59:18.058Z,99.90
2019-05-01T07:01:47.891Z,99.90
2019-05-01T07:04:16.743Z,99.90
2019-05-01T07:06:45.195Z,99.90
2019-05-01T07:09:27.124Z,99.90
2019-05-01T07:11:47.722Z,99.90
2019-05-01T07:14:17.400Z,99.90
2019-05-01T07:16:45.998Z,99.90
2019-05-01T07:19:15.515Z,99.90
2019-05-01T07:21:43.987Z,99.90
2019-05-01T07:24:12.522Z,99.90
2019-05-01T07:26:43.823Z,99.90
2019-05-01T07:29:12.905Z,99.90
2019-05-01T07:31:41.516Z,99.90
2019-05-01T07:34:16.419Z,99.90
2019-05-01T07:36:40.453Z,99.90
2019-05-01T07:39:09.950Z,99.90
2019-05-01T07:41:39.717Z,99.90
2019-05-01T07:44:12.792Z,99.90
2019-05-01T07:46:59.296Z,99.90
2019-05-01T07:49:47.840Z,99.90
2019-05-01T07:52:18.734Z,99.90
2019-05-01T07:54:47.369Z,99.90
2019-05-01T07:57:17.004Z,99.90
2019-05-01T07:59:45.782Z,99.90
2019-05-01T08:02:14.530Z,99.90
2019-05-01T08:04:42.935Z,99.90
2019-05-01T08:07:11.349Z,99.90
2019-05-01T08:09:39.983Z,99.90
2019-05-01T08:12:08.399Z,99.90
2019-05-01T08:14:36.813Z,99.90
2019-05-01T08:17:05.305Z,99.90
2019-05-01T08:19:44.042Z,99.50
2019-05-01T08:22:14.166Z,99.10
2019-05-01T08:24:42.574Z,98.80
2019-05-01T08:27:15.714Z,98.40
2019-05-01T08:29:44.455Z,98.10
2019-05-01T08:32:33.878Z,97.90
2019-05-01T08:35:02.521Z,97.70
2019-05-01T08:37:31.009Z,97.50
2019-05-01T08:39:59.426Z,97.30
2019-05-01T08:42:27.817Z,97.40
2019-05-01T08:45:05.357Z,97.50
2019-05-01T08:47:38.145Z,97.40
2019-05-01T08:50:15.250Z,96.90
2019-05-01T08:52:47.524Z,96.80
2019-05-01T08:55:13.937Z,95.90
2019-05-01T08:57:42.414Z,95.80
2019-05-01T09:00:11.390Z,95.50
2019-05-01T09:02:41.753Z,95.20
2019-05-01T09:05:27.691Z,95.00
2019-05-01T09:07:40.318Z,94.70
2019-05-01T09:10:09.436Z,94.70
2019-05-01T09:12:38.136Z,94.60
2019-05-01T09:15:12.865Z,94.50
2019-05-01T09:17:37.921Z,94.20
2019-05-01T09:20:06.553Z,94.00
2019-05-01T09:22:34.973Z,93.90
2019-05-01T09:25:03.993Z,93.90
2019-05-01T09:27:39.788Z,93.70
2019-05-01T09:30:17.067Z,93.70
2019-05-01T09:32:53.977Z,93.80
2019-05-01T09:35:16.336Z,93.60
2019-05-01T09:37:45.098Z,93.30
2019-05-01T09:40:13.942Z,93.40
2019-05-01T09:42:42.454Z,93.30
2019-05-01T09:45:11.571Z,93.10
2019-05-01T09:47:40.105Z,92.80
2019-05-01T09:50:08.757Z,92.60
2019-05-01T09:52:44.874Z,92.50
2019-05-01T09:55:17.862Z,92.00
2019-05-01T09:57:45.147Z,92.00
2019-05-01T10:00:22.622Z,91.60
2019-05-01T10:02:51.042Z,91.00
2019-05-01T10:05:28.676Z,90.70
2019-05-01T10:07:49.670Z,90.20
2019-05-01T10:10:18.272Z,88.70
2019-05-01T10:12:48.382Z,88.20
2019-05-01T10:15:17.022Z,87.60
2019-05-01T10:17:45.439Z,87.50
2019-05-01T10:20:14.007Z,87.30
2019-05-01T10:22:42.606Z,86.30
2019-05-01T10:25:12.400Z,85.30
2019-05-01T10:27:42.838Z,85.40
2019-05-01T10:30:13.134Z,84.60
2019-05-01T10:32:44.467Z,84.40
2019-05-01T10:35:42.375Z,83.50
2019-05-01T10:38:04.764Z,82.50
2019-05-01T10:40:34.344Z,81.60
2019-05-01T10:43:02.877Z,80.20
2019-05-01T10:45:31.362Z,79.30
2019-05-01T10:47:59.774Z,78.80
2019-05-01T10:50:28.181Z,78.10
2019-05-01T10:52:56.608Z,78.30
2019-05-01T10:55:25.074Z,78.00
2019-05-01T10:57:53.539Z,77.80
2019-05-01T11:00:23.279Z,77.70
2019-05-01T11:02:51.682Z,78.10
2019-05-01T11:05:20.082Z,78.50
2019-05-01T11:07:48.494Z,77.20
2019-05-01T11:10:18.503Z,75.50
2019-05-01T11:12:46.907Z,75.90
2019-05-01T11:15:15.918Z,75.40
2019-05-01T11:17:44.316Z,75.30
2019-05-01T11:20:13.328Z,76.00
2019-05-01T11:22:41.738Z,75.90
2019-05-01T11:25:10.685Z,75.70
2019-05-01T11:27:39.434Z,75.70
2019-05-01T11:30:08.421Z,75.70
2019-05-01T11:32:38.547Z,75.30
2019-05-01T11:35:25.270Z,74.50
2019-05-01T11:37:55.334Z,73.20
2019-05-01T11:40:34.198Z,72.50
2019-05-01T11:43:02.867Z,73.00
2019-05-01T11:45:31.358Z,73.60
2019-05-01T11:47:59.763Z,71.80
2019-05-01T11:50:28.171Z,70.00
2019-05-01T11:52:56.694Z,68.20
2019-05-01T11:55:25.085Z,67.60
2019-05-01T11:57:53.482Z,66.20
2019-05-01T12:00:22.282Z,66.10
2019-05-01T12:02:50.745Z,65.20
2019-05-01T12:05:19.230Z,64.20
2019-05-01T12:07:47.675Z,63.40
2019-05-01T12:10:16.571Z,64.10
2019-05-01T12:12:44.982Z,65.20
2019-05-01T12:15:15.198Z,64.00
2019-05-01T12:17:50.400Z,63.30
2019-05-01T12:20:19.590Z,63.90
2019-05-01T12:22:51.255Z,63.50
2019-05-01T12:25:18.410Z,62.80
2019-05-01T12:27:46.802Z,62.90
2019-05-01T12:30:16.823Z,62.10
2019-05-01T12:32:45.343Z,61.80
2019-05-01T12:35:13.995Z,60.90
2019-05-01T12:37:42.861Z,60.00
2019-05-01T12:40:13.605Z,60.00
2019-05-01T12:42:42.130Z,59.70
2019-05-01T12:45:11.965Z,58.70
2019-05-01T12:47:47.926Z,58.60
2019-05-01T12:50:16.788Z,58.70
2019-05-01T12:52:47.083Z,58.30
2019-05-01T12:55:36.784Z,58.80
2019-05-01T12:58:05.330Z,59.70
2019-05-01T13:00:46.927Z,61.70
2019-05-01T13:03:15.777Z,60.70
2019-05-01T13:05:44.375Z,59.60
2019-05-01T13:08:12.779Z,59.30
2019-05-01T13:10:41.244Z,57.90
2019-05-01T13:13:11.261Z,56.40
2019-05-01T13:15:39.878Z,56.40
2019-05-01T13:18:08.286Z,57.10
2019-05-01T13:20:36.699Z,57.80
2019-05-01T13:23:05.258Z,58.00
2019-05-01T13:25:33.668Z,57.40
2019-05-01T13:28:19.986Z,57.60
2019-05-01T13:30:50.386Z,57.40
2019-05-01T13:33:18.871Z,57.00
2019-05-01T13:35:47.263Z,56.00
2019-05-01T13:38:15.675Z,55.20
2019-05-01T13:40:44.256Z,56.00
2019-05-01T13:43:12.642Z,55.10
2019-05-01T13:45:41.080Z,54.10
2019-05-01T13:48:09.594Z,52.90
2019-05-01T13:50:38.109Z,52.80
2019-05-01T13:53:06.545Z,54.50
2019-05-01T13:55:35.269Z,56.20
2019-05-01T13:58:03.679Z,55.20
2019-05-01T14:00:32.258Z,54.50
2019-05-01T14:03:00.716Z,51.60
2019-05-01T14:05:29.123Z,51.30
2019-05-01T14:07:57.890Z,51.70
2019-05-01T14:10:26.292Z,51.90
2019-05-01T14:12:54.694Z,51.60
2019-05-01T14:15:23.109Z,50.80
2019-05-01T14:17:51.512Z,50.30
2019-05-01T14:20:36.467Z,49.90
2019-05-01T14:23:22.821Z,48.60
2019-05-01T14:26:04.286Z,47.60
2019-05-01T14:28:34.482Z,45.40
2019-05-01T14:31:03.014Z,44.40
2019-05-01T14:33:31.506Z,43.90
2019-05-01T14:36:00.866Z,43.10
2019-05-01T14:38:29.264Z,42.70
2019-05-01T14:40:57.654Z,43.00
2019-05-01T14:43:26.257Z,43.30
2019-05-01T14:45:56.044Z,43.40
2019-05-01T14:48:24.682Z,43.40
2019-05-01T14:50:53.118Z,42.20
2019-05-01T14:53:21.636Z,41.00
2019-05-01T14:55:50.079Z,40.10
2019-05-01T14:58:18.534Z,40.70
2019-05-01T15:00:46.924Z,41.00
2019-05-01T15:03:15.405Z,40.30
2019-05-01T15:05:43.938Z,39.90
2019-05-01T15:08:12.351Z,38.80
2019-05-01T15:10:43.511Z,38.40
2019-05-01T15:13:16.246Z,38.30
2019-05-01T15:15:46.354Z,38.40
2019-05-01T15:18:28.233Z,38.00
2019-05-01T15:20:56.694Z,37.80
2019-05-01T15:23:25.106Z,37.50
2019-05-01T15:25:53.609Z,37.50
2019-05-01T15:28:22.014Z,37.20
2019-05-01T15:30:51.000Z,37.00
2019-05-01T15:33:19.428Z,37.70
2019-05-01T15:35:48.730Z,37.50
2019-05-01T15:38:17.199Z,38.50
2019-05-01T15:40:47.236Z,39.10
2019-05-01T15:43:25.849Z,39.40
2019-05-01T15:45:54.253Z,39.10
2019-05-01T15:48:22.651Z,39.70
2019-05-01T15:50:51.054Z,39.90
2019-05-01T15:53:19.547Z,39.80
2019-05-01T15:55:48.139Z,39.60
2019-05-01T15:58:16.773Z,39.90
2019-05-01T16:00:45.406Z,40.40
2019-05-01T16:03:13.846Z,41.00
2019-05-01T16:05:42.247Z,40.90
2019-05-01T16:08:10.737Z,41.60
2019-05-01T16:10:46.453Z,42.30
2019-05-01T16:13:14.863Z,42.30
2019-05-01T16:15:43.279Z,42.20
2019-05-01T16:18:11.674Z,42.40
2019-05-01T16:20:40.196Z,42.60
2019-05-01T16:23:08.586Z,42.30
2019-05-01T16:25:37.064Z,42.30
2019-05-01T16:28:05.469Z,42.40
2019-05-01T16:30:33.854Z,42.50
2019-05-01T16:33:02.266Z,42.40
2019-05-01T16:35:36.799Z,42.50
2019-05-01T16:38:06.949Z,42.70
2019-05-01T16:40:42.930Z,43.30
2019-05-01T16:43:12.491Z,43.40
2019-05-01T16:45:40.903Z,43.40
2019-05-01T16:48:09.468Z,43.50
2019-05-01T16:50:37.859Z,43.10
2019-05-01T16:53:06.411Z,43.00
2019-05-01T16:55:34.831Z,43.00
2019-05-01T16:58:04.924Z,42.70
2019-05-01T17:00:53.147Z,42.40
2019-05-01T17:03:23.179Z,42.10
2019-05-01T17:05:53.454Z,41.50
2019-05-01T17:08:36.425Z,41.30
2019-05-01T17:11:03.088Z,41.70
2019-05-01T17:13:31.914Z,42.20
2019-05-01T17:16:00.486Z,41.90
2019-05-01T17:18:29.102Z,41.80
2019-05-01T17:20:57.574Z,42.00
2019-05-01T17:23:25.986Z,42.30
2019-05-01T17:25:54.482Z,42.70
2019-05-01T17:28:22.881Z,43.30
2019-05-01T17:30:52.938Z,43.60
2019-05-01T17:33:22.121Z,43.20
2019-05-01T17:35:50.655Z,42.70
2019-05-01T17:38:19.242Z,42.70
2019-05-01T17:40:51.977Z,42.70
2019-05-01T17:43:17.844Z,42.40
2019-05-01T17:45:46.272Z,41.80
2019-05-01T17:48:14.826Z,41.90
2019-05-01T17:50:43.271Z,41.90
2019-05-01T17:53:11.732Z,41.80
2019-05-01T17:55:40.366Z,41.50
2019-05-01T17:58:08.918Z,41.30
2019-05-01T18:00:38.960Z,41.40
2019-05-01T18:03:12.370Z,41.50
2019-05-01T18:06:01.276Z,42.20
2019-05-01T18:08:28.930Z,43.80
2019-05-01T18:10:57.410Z,45.00
2019-05-01T18:13:25.832Z,46.30
2019-05-01T18:15:54.674Z,47.50
2019-05-01T18:18:23.461Z,48.50
2019-05-01T18:20:51.938Z,50.20
2019-05-01T18:23:42.754Z,51.90
2019-05-01T18:26:27.905Z,53.50
2019-05-01T18:29:12.824Z,54.70
2019-05-01T18:31:41.451Z,55.50
2019-05-01T18:34:10.031Z,57.20
2019-05-01T18:36:43.066Z,59.20
2019-05-01T18:39:22.013Z,61.00
2019-05-01T18:41:53.702Z,62.70
2019-05-01T18:44:22.162Z,64.70
2019-05-01T18:46:50.579Z,66.60
2019-05-01T18:49:19.091Z,68.30
2019-05-01T18:51:47.490Z,69.80
2019-05-01T18:54:16.313Z,71.30
2019-05-01T18:56:44.750Z,72.80
2019-05-01T18:59:13.178Z,75.00
2019-05-01T19:01:43.802Z,77.20
2019-05-01T19:04:11.834Z,79.30
2019-05-01T19:06:42.479Z,81.90
2019-05-01T19:09:15.107Z,83.80
2019-05-01T19:11:41.120Z,86.00
2019-05-01T19:14:09.693Z,88.00
2019-05-01T19:16:40.086Z,89.70
2019-05-01T19:19:08.671Z,90.50
2019-05-01T19:21:41.881Z,91.40
2019-05-01T19:24:09.763Z,91.80
2019-05-01T19:26:42.554Z,92.40
2019-05-01T19:29:10.265Z,93.00
2019-05-01T19:31:40.548Z,93.50
2019-05-01T19:34:09.357Z,94.00
2019-05-01T19:36:40.356Z,94.50
2019-05-01T19:39:11.702Z,94.90
2019-05-01T19:41:38.350Z,95.30
2019-05-01T19:44:06.979Z,95.70
2019-05-01T19:46:35.480Z,96.10
2019-05-01T19:49:04.070Z,96.40
2019-05-01T19:51:33.217Z,96.70
2019-05-01T19:54:01.733Z,97.00
2019-05-01T19:56:33.208Z,97.30
2019-05-01T19:59:01.700Z,97.50
2019-05-01T20:01:30.157Z,97.60
2019-05-01T20:04:02.779Z,97.90
2019-05-01T20:06:31.434Z,98.10
2019-05-01T20:09:00.139Z,98.40
2019-05-01T20:11:28.614Z,98.60
2019-05-01T20:13:57.112Z,98.90
2019-05-01T20:16:25.550Z,99.10
2019-05-01T20:18:53.961Z,99.40
2019-05-01T20:21:22.498Z,99.60
2019-05-01T20:23:50.921Z,99.90
2019-05-01T20:26:19.471Z,99.90
2019-05-01T20:28:47.858Z,99.90
2019-05-01T20:31:17.916Z,99.90
2019-05-01T20:33:46.950Z,99.90
2019-05-01T20:36:15.548Z,99.90
2019-05-01T20:38:43.998Z,99.90
2019-05-01T20:41:16.120Z,99.90
2019-05-01T20:43:43.460Z,99.90
2019-05-01T20:46:12.801Z,99.90
2019-05-01T20:48:41.387Z,99.90
2019-05-01T20:51:09.801Z,99.90
2019-05-01T20:53:38.202Z,99.90
2019-05-01T20:56:24.261Z,99.90
2019-05-01T20:58:53.091Z,99.90
2019-05-01T21:01:24.210Z,99.90
2019-05-01T21:03:56.193Z,99.90
2019-05-01T21:06:28.434Z,99.90
2019-05-01T21:09:08.181Z,99.90
2019-05-01T21:11:47.150Z,99.90
2019-05-01T21:14:21.725Z,99.90
2019-05-01T21:16:44.357Z,99.90
2019-05-01T21:19:13.483Z,99.90
2019-05-01T21:21:43.451Z,99.90
2019-05-01T21:24:14.022Z,99.90
2019-05-01T21:26:43.369Z,99.90
2019-05-01T21:29:13.853Z,99.90
2019-05-01T21:31:43.900Z,99.90
2019-05-01T21:34:14.383Z,99.90
2019-05-01T21:36:42.541Z,99.90
2019-05-01T21:39:12.543Z,99.90
2019-05-01T21:41:43.172Z,99.90
2019-05-01T21:44:13.016Z,99.90
2019-05-01T21:46:43.184Z,99.90
2019-05-01T21:49:12.957Z,99.90
2019-05-01T21:51:45.871Z,99.90
2019-05-01T21:54:15.925Z,99.90
2019-05-01T21:56:43.042Z,99.90
2019-05-01T21:59:12.368Z,99.90
2019-05-01T22:01:41.038Z,99.90
2019-05-01T22:04:09.450Z,99.90
2019-05-01T22:06:37.862Z,99.90
2019-05-01T22:09:10.628Z,99.90
2019-05-01T22:11:39.049Z,99.90
2019-05-01T22:14:09.081Z,99.90
2019-05-01T22:16:37.668Z,99.90
2019-05-01T22:19:22.809Z,99.90
2019-05-01T22:22:08.941Z,99.90
2019-05-01T22:24:44.895Z,99.90
2019-05-01T22:27:23.697Z,99.90
2019-05-01T22:29:53.737Z,99.90
2019-05-01T22:32:32.416Z,99.90
2019-05-01T22:35:03.962Z,99.90
2019-05-01T22:37:32.383Z,99.90
2019-05-01T22:40:05.066Z,99.90
2019-05-01T22:42:33.467Z,99.90
2019-05-01T22:45:01.947Z,99.90
2019-05-01T22:47:30.357Z,99.90
2019-05-01T22:49:59.189Z,99.90
2019-05-01T22:52:27.658Z,99.90
2019-05-01T22:54:56.041Z,99.90
2019-05-01T22:57:24.451Z,99.90
2019-05-01T22:59:53.017Z,99.90
2019-05-01T23:02:24.147Z,99.90
2019-05-01T23:04:53.667Z,99.90
2019-05-01T23:07:22.190Z,99.90
2019-05-01T23:09:50.659Z,99.90
2019-05-01T23:12:19.140Z,99.90
2019-05-01T23:14:47.541Z,99.90
2019-05-01T23:17:20.509Z,99.90
2019-05-01T23:19:48.894Z,99.90
2019-05-01T23:22:17.460Z,99.90
2019-05-01T23:24:45.866Z,99.90
2019-05-01T23:27:14.382Z,99.90
2019-05-01T23:29:42.861Z,99.90
2019-05-01T23:32:11.323Z,99.90
2019-05-01T23:34:39.789Z,99.90
2019-05-01T23:37:08.183Z,99.90
2019-05-01T23:39:40.503Z,99.90
2019-05-01T23:42:06.809Z,99.90
2019-05-01T23:44:38.237Z,99.90
2019-05-01T23:47:05.382Z,99.90
2019-05-01T23:49:33.830Z,99.90
2019-05-01T23:52:03.335Z,99.90
2019-05-01T23:54:32.372Z,99.90
2019-05-01T23:57:00.910Z,99.90
2019-05-01T23:59:29.445Z,99.90
